sensor_id;sensor_type;location;lat;lon;timestamp;P1;durP1;ratioP1;P2;durP2;ratioP2
18983;SDS011;9626;52.552;13.436;2022-08-27T00:00:16;10.88;;;8.50;;
18983;SDS011;9626;52.552;13.436;2022-08-27T00:02:43;9.57;;;7.53;;
18983;SDS011;9626;52.552;13.436;2022-08-27T00:05:10;8.30;;;7.22;;
18983;SDS011;9626;52.552;13.436;2022-08-27T00:07:37;12.90;;;8.18;;
18983;SDS011;9626;52.552;13.436;2022-08-27T00:10:23;9.65;;;7.68;;
18983;SDS011;9626;52.552;13.436;2022-08-27T00:13:09;11.02;;;8.27;;
18983;SDS011;9626;52.552;13.436;2022-08-27T00:15:35;12.27;;;8.02;;
18983;SDS011;9626;52.552;13.436;2022-08-27T00:18:10;9.25;;;8.25;;
18983;SDS011;9626;52.552;13.436;2022-08-27T00:20:40;10.70;;;7.97;;
18983;SDS011;9626;52.552;13.436;2022-08-27T00:23:05;11.07;;;7.97;;
18983;SDS011;9626;52.552;13.436;2022-08-27T00:25:31;8.90;;;7.68;;
18983;SDS011;9626;52.552;13.436;2022-08-27T00:28:15;11.57;;;8.30;;
18983;SDS011;9626;52.552;13.436;2022-08-27T00:30:40;8.85;;;7.65;;
18983;SDS011;9626;52.552;13.436;2022-08-27T00:33:06;9.55;;;8.43;;
18983;SDS011;9626;52.552;13.436;2022-08-27T00:35:31;10.45;;;7.97;;
18983;SDS011;9626;52.552;13.436;2022-08-27T00:37:58;10.07;;;7.85;;
18983;SDS011;9626;52.552;13.436;2022-08-27T00:40:25;10.32;;;7.70;;
18983;SDS011;9626;52.552;13.436;2022-08-27T00:42:51;9.70;;;8.70;;
18983;SDS011;9626;52.552;13.436;2022-08-27T00:45:18;10.70;;;8.77;;
18983;SDS011;9626;52.552;13.436;2022-08-27T00:47:48;13.68;;;9.20;;
18983;SDS011;9626;52.552;13.436;2022-08-27T00:50:26;10.57;;;9.10;;
18983;SDS011;9626;52.552;13.436;2022-08-27T00:52:56;12.35;;;8.80;;
18983;SDS011;9626;52.552;13.436;2022-08-27T00:55:30;11.23;;;8.60;;
18983;SDS011;9626;52.552;13.436;2022-08-27T00:58:10;10.32;;;9.18;;
18983;SDS011;9626;52.552;13.436;2022-08-27T01:00:42;12.73;;;9.38;;
18983;SDS011;9626;52.552;13.436;2022-08-27T01:03:10;13.27;;;9.60;;
18983;SDS011;9626;52.552;13.436;2022-08-27T01:05:36;9.60;;;8.43;;
18983;SDS011;9626;52.552;13.436;2022-08-27T01:08:13;10.95;;;8.68;;
18983;SDS011;9626;52.552;13.436;2022-08-27T01:10:41;10.45;;;8.63;;
18983;SDS011;9626;52.552;13.436;2022-08-27T01:13:09;9.85;;;8.60;;
18983;SDS011;9626;52.552;13.436;2022-08-27T01:15:38;11.80;;;8.90;;
18983;SDS011;9626;52.552;13.436;2022-08-27T01:18:05;9.57;;;8.20;;
18983;SDS011;9626;52.552;13.436;2022-08-27T01:20:45;11.25;;;8.43;;
18983;SDS011;9626;52.552;13.436;2022-08-27T01:26:02;10.75;;;8.85;;
18983;SDS011;9626;52.552;13.436;2022-08-27T01:28:31;11.73;;;9.15;;
18983;SDS011;9626;52.552;13.436;2022-08-27T01:30:58;11.43;;;8.43;;
18983;SDS011;9626;52.552;13.436;2022-08-27T01:33:23;9.40;;;8.18;;
18983;SDS011;9626;52.552;13.436;2022-08-27T01:39:04;12.45;;;8.90;;
18983;SDS011;9626;52.552;13.436;2022-08-27T01:41:30;9.73;;;8.02;;
18983;SDS011;9626;52.552;13.436;2022-08-27T01:43:55;12.80;;;8.63;;
18983;SDS011;9626;52.552;13.436;2022-08-27T01:46:22;11.40;;;8.93;;
18983;SDS011;9626;52.552;13.436;2022-08-27T01:48:48;12.98;;;8.73;;
18983;SDS011;9626;52.552;13.436;2022-08-27T01:51:14;11.98;;;8.77;;
18983;SDS011;9626;52.552;13.436;2022-08-27T01:53:40;11.52;;;8.77;;
18983;SDS011;9626;52.552;13.436;2022-08-27T01:56:05;10.40;;;9.35;;
18983;SDS011;9626;52.552;13.436;2022-08-27T01:58:31;9.85;;;8.73;;
18983;SDS011;9626;52.552;13.436;2022-08-27T02:00:59;11.27;;;8.85;;
18983;SDS011;9626;52.552;13.436;2022-08-27T02:03:34;12.13;;;9.65;;
18983;SDS011;9626;52.552;13.436;2022-08-27T02:06:04;11.23;;;9.63;;
18983;SDS011;9626;52.552;13.436;2022-08-27T02:08:32;12.63;;;10.13;;
18983;SDS011;9626;52.552;13.436;2022-08-27T02:10:58;11.75;;;9.80;;
18983;SDS011;9626;52.552;13.436;2022-08-27T02:13:24;13.77;;;10.05;;
18983;SDS011;9626;52.552;13.436;2022-08-27T02:15:49;15.02;;;10.38;;
18983;SDS011;9626;52.552;13.436;2022-08-27T02:18:15;12.98;;;10.38;;
18983;SDS011;9626;52.552;13.436;2022-08-27T02:20:42;15.45;;;11.27;;
18983;SDS011;9626;52.552;13.436;2022-08-27T02:23:09;15.65;;;9.85;;
18983;SDS011;9626;52.552;13.436;2022-08-27T02:25:35;17.73;;;10.85;;
18983;SDS011;9626;52.552;13.436;2022-08-27T02:28:01;15.32;;;10.10;;
18983;SDS011;9626;52.552;13.436;2022-08-27T02:30:29;19.77;;;10.43;;
18983;SDS011;9626;52.552;13.436;2022-08-27T02:33:17;18.02;;;11.65;;
18983;SDS011;9626;52.552;13.436;2022-08-27T02:35:43;20.98;;;11.60;;
18983;SDS011;9626;52.552;13.436;2022-08-27T02:38:09;21.92;;;12.07;;
18983;SDS011;9626;52.552;13.436;2022-08-27T02:40:36;18.05;;;11.82;;
18983;SDS011;9626;52.552;13.436;2022-08-27T02:43:20;20.38;;;12.65;;
18983;SDS011;9626;52.552;13.436;2022-08-27T02:45:46;19.95;;;11.85;;
18983;SDS011;9626;52.552;13.436;2022-08-27T02:48:11;19.90;;;12.73;;
18983;SDS011;9626;52.552;13.436;2022-08-27T02:50:37;24.05;;;12.13;;
18983;SDS011;9626;52.552;13.436;2022-08-27T02:53:03;19.50;;;12.77;;
18983;SDS011;9626;52.552;13.436;2022-08-27T02:55:30;19.48;;;12.45;;
18983;SDS011;9626;52.552;13.436;2022-08-27T02:57:57;18.45;;;12.55;;
18983;SDS011;9626;52.552;13.436;2022-08-27T03:00:23;18.02;;;12.00;;
18983;SDS011;9626;52.552;13.436;2022-08-27T03:02:50;22.23;;;13.10;;
18983;SDS011;9626;52.552;13.436;2022-08-27T03:05:16;21.10;;;13.48;;
18983;SDS011;9626;52.552;13.436;2022-08-27T03:07:42;20.02;;;13.50;;
18983;SDS011;9626;52.552;13.436;2022-08-27T03:10:09;23.02;;;14.50;;
18983;SDS011;9626;52.552;13.436;2022-08-27T03:12:38;21.92;;;14.82;;
18983;SDS011;9626;52.552;13.436;2022-08-27T03:15:05;21.70;;;13.77;;
18983;SDS011;9626;52.552;13.436;2022-08-27T03:17:33;22.73;;;14.25;;
18983;SDS011;9626;52.552;13.436;2022-08-27T03:20:18;23.10;;;14.68;;
18983;SDS011;9626;52.552;13.436;2022-08-27T03:22:43;22.33;;;15.18;;
18983;SDS011;9626;52.552;13.436;2022-08-27T03:25:09;25.00;;;15.10;;
18983;SDS011;9626;52.552;13.436;2022-08-27T03:27:35;23.38;;;16.15;;
18983;SDS011;9626;52.552;13.436;2022-08-27T03:30:03;28.58;;;16.38;;
18983;SDS011;9626;52.552;13.436;2022-08-27T03:32:30;23.33;;;16.65;;
18983;SDS011;9626;52.552;13.436;2022-08-27T03:34:56;22.60;;;16.50;;
18983;SDS011;9626;52.552;13.436;2022-08-27T03:37:22;27.90;;;17.98;;
18983;SDS011;9626;52.552;13.436;2022-08-27T03:39:48;25.17;;;18.23;;
18983;SDS011;9626;52.552;13.436;2022-08-27T03:42:14;25.35;;;17.88;;
18983;SDS011;9626;52.552;13.436;2022-08-27T03:44:39;27.67;;;18.65;;
18983;SDS011;9626;52.552;13.436;2022-08-27T03:47:05;25.15;;;17.77;;
18983;SDS011;9626;52.552;13.436;2022-08-27T03:49:30;34.20;;;20.70;;
18983;SDS011;9626;52.552;13.436;2022-08-27T03:51:56;28.73;;;19.90;;
18983;SDS011;9626;52.552;13.436;2022-08-27T03:54:22;37.97;;;21.65;;
18983;SDS011;9626;52.552;13.436;2022-08-27T03:56:49;24.33;;;19.55;;
18983;SDS011;9626;52.552;13.436;2022-08-27T03:59:15;31.00;;;20.77;;
18983;SDS011;9626;52.552;13.436;2022-08-27T04:01:41;30.38;;;20.83;;
18983;SDS011;9626;52.552;13.436;2022-08-27T04:04:08;29.90;;;20.77;;
18983;SDS011;9626;52.552;13.436;2022-08-27T04:06:34;32.88;;;21.38;;
18983;SDS011;9626;52.552;13.436;2022-08-27T04:08:59;28.27;;;20.15;;
18983;SDS011;9626;52.552;13.436;2022-08-27T04:11:25;28.10;;;19.88;;
18983;SDS011;9626;52.552;13.436;2022-08-27T04:13:53;28.85;;;19.45;;
18983;SDS011;9626;52.552;13.436;2022-08-27T04:16:19;27.95;;;20.20;;
18983;SDS011;9626;52.552;13.436;2022-08-27T04:18:45;30.20;;;18.27;;
18983;SDS011;9626;52.552;13.436;2022-08-27T04:21:11;31.08;;;22.98;;
18983;SDS011;9626;52.552;13.436;2022-08-27T04:23:47;26.27;;;19.80;;
18983;SDS011;9626;52.552;13.436;2022-08-27T04:26:17;27.67;;;19.17;;
18983;SDS011;9626;52.552;13.436;2022-08-27T04:28:43;25.52;;;20.40;;
18983;SDS011;9626;52.552;13.436;2022-08-27T04:31:09;27.08;;;19.02;;
18983;SDS011;9626;52.552;13.436;2022-08-27T04:33:34;23.05;;;18.65;;
18983;SDS011;9626;52.552;13.436;2022-08-27T04:36:01;25.25;;;19.77;;
18983;SDS011;9626;52.552;13.436;2022-08-27T04:38:29;26.65;;;19.33;;
18983;SDS011;9626;52.552;13.436;2022-08-27T04:40:54;22.73;;;18.40;;
18983;SDS011;9626;52.552;13.436;2022-08-27T04:43:38;23.58;;;18.27;;
18983;SDS011;9626;52.552;13.436;2022-08-27T04:46:04;27.55;;;19.58;;
18983;SDS011;9626;52.552;13.436;2022-08-27T04:48:30;26.27;;;19.88;;
18983;SDS011;9626;52.552;13.436;2022-08-27T04:50:56;24.00;;;18.85;;
18983;SDS011;9626;52.552;13.436;2022-08-27T04:53:21;24.55;;;19.88;;
18983;SDS011;9626;52.552;13.436;2022-08-27T04:55:49;25.42;;;19.65;;
18983;SDS011;9626;52.552;13.436;2022-08-27T04:58:16;28.20;;;20.00;;
18983;SDS011;9626;52.552;13.436;2022-08-27T05:00:43;30.05;;;18.92;;
18983;SDS011;9626;52.552;13.436;2022-08-27T05:03:12;26.00;;;19.13;;
18983;SDS011;9626;52.552;13.436;2022-08-27T05:06:02;40.35;;;19.48;;
18983;SDS011;9626;52.552;13.436;2022-08-27T05:08:29;32.03;;;19.05;;
18983;SDS011;9626;52.552;13.436;2022-08-27T05:11:12;22.35;;;18.05;;
18983;SDS011;9626;52.552;13.436;2022-08-27T05:13:40;25.17;;;18.98;;
18983;SDS011;9626;52.552;13.436;2022-08-27T05:16:10;25.55;;;18.10;;
18983;SDS011;9626;52.552;13.436;2022-08-27T05:18:38;22.58;;;18.63;;
18983;SDS011;9626;52.552;13.436;2022-08-27T05:21:05;21.65;;;17.40;;
18983;SDS011;9626;52.552;13.436;2022-08-27T05:23:31;22.98;;;18.38;;
18983;SDS011;9626;52.552;13.436;2022-08-27T05:25:57;20.65;;;17.83;;
18983;SDS011;9626;52.552;13.436;2022-08-27T05:28:25;27.90;;;18.02;;
18983;SDS011;9626;52.552;13.436;2022-08-27T05:30:53;30.02;;;17.27;;
18983;SDS011;9626;52.552;13.436;2022-08-27T05:33:21;22.92;;;17.38;;
18983;SDS011;9626;52.552;13.436;2022-08-27T05:35:49;19.70;;;17.25;;
18983;SDS011;9626;52.552;13.436;2022-08-27T05:38:17;22.17;;;18.00;;
18983;SDS011;9626;52.552;13.436;2022-08-27T05:40:44;27.13;;;18.98;;
18983;SDS011;9626;52.552;13.436;2022-08-27T05:43:12;22.98;;;18.17;;
18983;SDS011;9626;52.552;13.436;2022-08-27T05:45:44;20.10;;;17.63;;
18983;SDS011;9626;52.552;13.436;2022-08-27T05:48:12;20.27;;;17.92;;
18983;SDS011;9626;52.552;13.436;2022-08-27T05:50:39;21.48;;;17.70;;
18983;SDS011;9626;52.552;13.436;2022-08-27T05:53:06;37.05;;;18.63;;
18983;SDS011;9626;52.552;13.436;2022-08-27T05:55:39;22.17;;;18.48;;
18983;SDS011;9626;52.552;13.436;2022-08-27T05:58:09;22.05;;;18.08;;
18983;SDS011;9626;52.552;13.436;2022-08-27T06:00:55;24.70;;;17.80;;
18983;SDS011;9626;52.552;13.436;2022-08-27T06:03:30;22.13;;;17.52;;
18983;SDS011;9626;52.552;13.436;2022-08-27T06:06:04;21.80;;;18.33;;
18983;SDS011;9626;52.552;13.436;2022-08-27T06:08:32;19.60;;;17.00;;
18983;SDS011;9626;52.552;13.436;2022-08-27T06:10:59;22.95;;;16.75;;
18983;SDS011;9626;52.552;13.436;2022-08-27T06:13:26;20.33;;;16.42;;
18983;SDS011;9626;52.552;13.436;2022-08-27T06:16:05;19.35;;;16.92;;
18983;SDS011;9626;52.552;13.436;2022-08-27T06:18:38;19.60;;;16.50;;
18983;SDS011;9626;52.552;13.436;2022-08-27T06:21:05;18.20;;;15.82;;
18983;SDS011;9626;52.552;13.436;2022-08-27T06:23:32;18.13;;;15.65;;
18983;SDS011;9626;52.552;13.436;2022-08-27T06:25:58;20.20;;;16.65;;
18983;SDS011;9626;52.552;13.436;2022-08-27T06:28:25;20.45;;;15.93;;
18983;SDS011;9626;52.552;13.436;2022-08-27T06:31:07;20.38;;;15.88;;
18983;SDS011;9626;52.552;13.436;2022-08-27T06:33:41;16.48;;;13.68;;
18983;SDS011;9626;52.552;13.436;2022-08-27T06:36:09;15.57;;;13.95;;
18983;SDS011;9626;52.552;13.436;2022-08-27T06:38:36;17.17;;;13.63;;
18983;SDS011;9626;52.552;13.436;2022-08-27T06:41:02;16.08;;;13.52;;
18983;SDS011;9626;52.552;13.436;2022-08-27T06:43:29;16.45;;;13.60;;
18983;SDS011;9626;52.552;13.436;2022-08-27T06:45:55;14.27;;;12.63;;
18983;SDS011;9626;52.552;13.436;2022-08-27T06:48:20;13.65;;;11.70;;
18983;SDS011;9626;52.552;13.436;2022-08-27T06:50:46;13.55;;;12.10;;
18983;SDS011;9626;52.552;13.436;2022-08-27T06:53:11;15.45;;;11.90;;
18983;SDS011;9626;52.552;13.436;2022-08-27T06:55:45;12.80;;;11.50;;
18983;SDS011;9626;52.552;13.436;2022-08-27T06:58:12;14.93;;;11.90;;
18983;SDS011;9626;52.552;13.436;2022-08-27T07:03:36;13.65;;;12.23;;
18983;SDS011;9626;52.552;13.436;2022-08-27T07:06:02;14.82;;;13.30;;
18983;SDS011;9626;52.552;13.436;2022-08-27T07:08:29;15.52;;;12.55;;
18983;SDS011;9626;52.552;13.436;2022-08-27T07:10:55;17.30;;;12.90;;
18983;SDS011;9626;52.552;13.436;2022-08-27T07:13:21;13.75;;;12.18;;
18983;SDS011;9626;52.552;13.436;2022-08-27T07:15:47;14.07;;;11.57;;
18983;SDS011;9626;52.552;13.436;2022-08-27T07:18:13;13.00;;;11.70;;
18983;SDS011;9626;52.552;13.436;2022-08-27T07:20:39;15.30;;;11.50;;
18983;SDS011;9626;52.552;13.436;2022-08-27T07:23:05;15.60;;;12.20;;
18983;SDS011;9626;52.552;13.436;2022-08-27T07:25:31;12.85;;;11.38;;
18983;SDS011;9626;52.552;13.436;2022-08-27T07:27:57;12.63;;;11.07;;
18983;SDS011;9626;52.552;13.436;2022-08-27T07:30:24;12.45;;;11.15;;
18983;SDS011;9626;52.552;13.436;2022-08-27T07:32:51;13.95;;;11.20;;
18983;SDS011;9626;52.552;13.436;2022-08-27T07:35:17;14.52;;;11.95;;
18983;SDS011;9626;52.552;13.436;2022-08-27T07:37:43;13.32;;;11.45;;
18983;SDS011;9626;52.552;13.436;2022-08-27T07:40:13;13.65;;;11.38;;
18983;SDS011;9626;52.552;13.436;2022-08-27T07:42:40;13.65;;;11.00;;
18983;SDS011;9626;52.552;13.436;2022-08-27T07:45:26;13.50;;;11.57;;
18983;SDS011;9626;52.552;13.436;2022-08-27T07:47:52;12.35;;;10.73;;
18983;SDS011;9626;52.552;13.436;2022-08-27T07:50:18;10.63;;;9.52;;
18983;SDS011;9626;52.552;13.436;2022-08-27T07:52:45;10.55;;;9.20;;
18983;SDS011;9626;52.552;13.436;2022-08-27T07:55:11;12.27;;;10.15;;
18983;SDS011;9626;52.552;13.436;2022-08-27T07:57:38;11.20;;;10.10;;
18983;SDS011;9626;52.552;13.436;2022-08-27T08:00:05;12.43;;;9.60;;
18983;SDS011;9626;52.552;13.436;2022-08-27T08:02:34;10.65;;;9.30;;
18983;SDS011;9626;52.552;13.436;2022-08-27T08:05:00;12.63;;;9.40;;
18983;SDS011;9626;52.552;13.436;2022-08-27T08:07:26;10.25;;;9.25;;
18983;SDS011;9626;52.552;13.436;2022-08-27T08:09:53;9.88;;;8.77;;
18983;SDS011;9626;52.552;13.436;2022-08-27T08:12:19;10.48;;;7.53;;
18983;SDS011;9626;52.552;13.436;2022-08-27T08:14:44;9.65;;;7.80;;
18983;SDS011;9626;52.552;13.436;2022-08-27T08:17:11;8.77;;;7.90;;
18983;SDS011;9626;52.552;13.436;2022-08-27T08:19:38;7.57;;;6.70;;
18983;SDS011;9626;52.552;13.436;2022-08-27T08:22:04;7.45;;;6.75;;
18983;SDS011;9626;52.552;13.436;2022-08-27T08:24:30;8.10;;;7.25;;
18983;SDS011;9626;52.552;13.436;2022-08-27T08:26:55;10.43;;;7.32;;
18983;SDS011;9626;52.552;13.436;2022-08-27T08:29:21;8.15;;;7.22;;
18983;SDS011;9626;52.552;13.436;2022-08-27T08:31:46;9.40;;;7.75;;
18983;SDS011;9626;52.552;13.436;2022-08-27T08:34:12;8.77;;;7.30;;
18983;SDS011;9626;52.552;13.436;2022-08-27T08:36:37;7.97;;;7.00;;
18983;SDS011;9626;52.552;13.436;2022-08-27T08:39:03;7.90;;;7.20;;
18983;SDS011;9626;52.552;13.436;2022-08-27T08:44:20;8.65;;;7.00;;
18983;SDS011;9626;52.552;13.436;2022-08-27T08:46:49;7.72;;;6.90;;
18983;SDS011;9626;52.552;13.436;2022-08-27T08:49:25;7.15;;;6.45;;
18983;SDS011;9626;52.552;13.436;2022-08-27T08:52:15;9.68;;;7.65;;
18983;SDS011;9626;52.552;13.436;2022-08-27T08:54:52;7.80;;;6.47;;
18983;SDS011;9626;52.552;13.436;2022-08-27T08:57:24;7.97;;;7.25;;
18983;SDS011;9626;52.552;13.436;2022-08-27T09:00:05;9.38;;;7.60;;
18983;SDS011;9626;52.552;13.436;2022-08-27T09:02:37;10.77;;;8.15;;
18983;SDS011;9626;52.552;13.436;2022-08-27T09:05:07;13.13;;;7.90;;
18983;SDS011;9626;52.552;13.436;2022-08-27T09:10:25;10.93;;;8.50;;
18983;SDS011;9626;52.552;13.436;2022-08-27T09:12:56;11.48;;;8.23;;
18983;SDS011;9626;52.552;13.436;2022-08-27T09:15:28;9.43;;;8.10;;
18983;SDS011;9626;52.552;13.436;2022-08-27T09:18:03;11.32;;;8.95;;
18983;SDS011;9626;52.552;13.436;2022-08-27T09:20:39;11.80;;;8.05;;
18983;SDS011;9626;52.552;13.436;2022-08-27T09:23:13;11.10;;;8.52;;
18983;SDS011;9626;52.552;13.436;2022-08-27T09:25:48;10.27;;;8.40;;
18983;SDS011;9626;52.552;13.436;2022-08-27T09:28:15;9.48;;;7.60;;
18983;SDS011;9626;52.552;13.436;2022-08-27T09:31:05;9.48;;;7.80;;
18983;SDS011;9626;52.552;13.436;2022-08-27T09:33:32;7.45;;;6.53;;
18983;SDS011;9626;52.552;13.436;2022-08-27T09:36:02;7.68;;;6.70;;
18983;SDS011;9626;52.552;13.436;2022-08-27T09:38:32;9.82;;;7.20;;
18983;SDS011;9626;52.552;13.436;2022-08-27T09:41:05;7.65;;;6.40;;
18983;SDS011;9626;52.552;13.436;2022-08-27T09:43:34;10.63;;;8.05;;
18983;SDS011;9626;52.552;13.436;2022-08-27T09:46:04;7.93;;;6.55;;
18983;SDS011;9626;52.552;13.436;2022-08-27T09:48:41;7.80;;;6.85;;
18983;SDS011;9626;52.552;13.436;2022-08-27T09:51:07;7.40;;;6.65;;
18983;SDS011;9626;52.552;13.436;2022-08-27T09:53:41;8.15;;;6.38;;
18983;SDS011;9626;52.552;13.436;2022-08-27T10:01:26;7.95;;;6.75;;
18983;SDS011;9626;52.552;13.436;2022-08-27T10:06:44;16.33;;;7.60;;
18983;SDS011;9626;52.552;13.436;2022-08-27T10:09:13;8.90;;;6.15;;
18983;SDS011;9626;52.552;13.436;2022-08-27T10:11:49;7.32;;;6.55;;
18983;SDS011;9626;52.552;13.436;2022-08-27T10:14:25;6.82;;;6.22;;
18983;SDS011;9626;52.552;13.436;2022-08-27T10:17:01;6.93;;;5.55;;
18983;SDS011;9626;52.552;13.436;2022-08-27T10:25:51;7.55;;;5.47;;
18983;SDS011;9626;52.552;13.436;2022-08-27T10:39:19;7.32;;;6.13;;
18983;SDS011;9626;52.552;13.436;2022-08-27T10:45:03;7.63;;;6.15;;
18983;SDS011;9626;52.552;13.436;2022-08-27T10:48:40;6.95;;;5.75;;
18983;SDS011;9626;52.552;13.436;2022-08-27T10:56:14;9.27;;;5.80;;
18983;SDS011;9626;52.552;13.436;2022-08-27T10:58:47;7.13;;;6.25;;
18983;SDS011;9626;52.552;13.436;2022-08-27T11:01:22;6.28;;;5.22;;
18983;SDS011;9626;52.552;13.436;2022-08-27T11:04:00;8.93;;;5.70;;
18983;SDS011;9626;52.552;13.436;2022-08-27T11:06:38;7.05;;;5.70;;
18983;SDS011;9626;52.552;13.436;2022-08-27T11:11:45;8.50;;;5.55;;
18983;SDS011;9626;52.552;13.436;2022-08-27T11:14:18;6.70;;;5.40;;
18983;SDS011;9626;52.552;13.436;2022-08-27T11:16:54;6.45;;;5.85;;
18983;SDS011;9626;52.552;13.436;2022-08-27T11:19:25;7.15;;;5.78;;
18983;SDS011;9626;52.552;13.436;2022-08-27T11:27:38;6.80;;;5.47;;
18983;SDS011;9626;52.552;13.436;2022-08-27T11:30:21;5.78;;;5.20;;
18983;SDS011;9626;52.552;13.436;2022-08-27T11:35:50;6.97;;;5.78;;
18983;SDS011;9626;52.552;13.436;2022-08-27T11:44:23;6.82;;;5.28;;
18983;SDS011;9626;52.552;13.436;2022-08-27T11:46:55;5.90;;;4.90;;
18983;SDS011;9626;52.552;13.436;2022-08-27T11:49:24;6.32;;;4.97;;
18983;SDS011;9626;52.552;13.436;2022-08-27T11:51:58;5.70;;;5.20;;
18983;SDS011;9626;52.552;13.436;2022-08-27T11:54:49;5.72;;;5.07;;
18983;SDS011;9626;52.552;13.436;2022-08-27T11:57:38;6.20;;;4.97;;
18983;SDS011;9626;52.552;13.436;2022-08-27T12:00:18;5.93;;;5.22;;
18983;SDS011;9626;52.552;13.436;2022-08-27T12:02:55;6.55;;;4.70;;
18983;SDS011;9626;52.552;13.436;2022-08-27T12:08:28;4.78;;;4.38;;
18983;SDS011;9626;52.552;13.436;2022-08-27T12:11:34;5.75;;;4.40;;
18983;SDS011;9626;52.552;13.436;2022-08-27T12:14:10;6.53;;;4.78;;
18983;SDS011;9626;52.552;13.436;2022-08-27T12:22:12;8.02;;;4.85;;
18983;SDS011;9626;52.552;13.436;2022-08-27T12:24:54;5.40;;;4.57;;
18983;SDS011;9626;52.552;13.436;2022-08-27T12:29:59;5.57;;;4.78;;
18983;SDS011;9626;52.552;13.436;2022-08-27T12:40:25;6.03;;;4.70;;
18983;SDS011;9626;52.552;13.436;2022-08-27T12:43:12;5.65;;;4.97;;
18983;SDS011;9626;52.552;13.436;2022-08-27T12:45:45;7.85;;;5.05;;
18983;SDS011;9626;52.552;13.436;2022-08-27T12:48:10;5.65;;;5.05;;
18983;SDS011;9626;52.552;13.436;2022-08-27T12:50:36;6.03;;;5.43;;
18983;SDS011;9626;52.552;13.436;2022-08-27T12:53:12;8.30;;;4.88;;
18983;SDS011;9626;52.552;13.436;2022-08-27T12:55:57;8.20;;;5.18;;
18983;SDS011;9626;52.552;13.436;2022-08-27T13:03:49;6.28;;;5.07;;
18983;SDS011;9626;52.552;13.436;2022-08-27T13:06:29;8.45;;;7.35;;
18983;SDS011;9626;52.552;13.436;2022-08-27T13:08:59;8.55;;;6.03;;
18983;SDS011;9626;52.552;13.436;2022-08-27T13:11:33;6.20;;;5.05;;
18983;SDS011;9626;52.552;13.436;2022-08-27T13:14:15;5.97;;;5.20;;
18983;SDS011;9626;52.552;13.436;2022-08-27T13:16:50;5.18;;;4.30;;
18983;SDS011;9626;52.552;13.436;2022-08-27T13:21:49;7.85;;;4.93;;
18983;SDS011;9626;52.552;13.436;2022-08-27T13:24:19;5.22;;;4.03;;
18983;SDS011;9626;52.552;13.436;2022-08-27T13:26:50;9.82;;;4.40;;
18983;SDS011;9626;52.552;13.436;2022-08-27T13:29:17;5.15;;;3.90;;
18983;SDS011;9626;52.552;13.436;2022-08-27T13:31:44;4.07;;;3.67;;
18983;SDS011;9626;52.552;13.436;2022-08-27T13:34:10;9.50;;;4.35;;
18983;SDS011;9626;52.552;13.436;2022-08-27T13:39:32;6.47;;;4.00;;
18983;SDS011;9626;52.552;13.436;2022-08-27T13:42:00;3.65;;;3.35;;
18983;SDS011;9626;52.552;13.436;2022-08-27T13:44:32;6.20;;;4.00;;
18983;SDS011;9626;52.552;13.436;2022-08-27T13:47:04;10.63;;;4.03;;
18983;SDS011;9626;52.552;13.436;2022-08-27T13:49:34;17.55;;;4.07;;
18983;SDS011;9626;52.552;13.436;2022-08-27T13:52:02;10.85;;;4.07;;
18983;SDS011;9626;52.552;13.436;2022-08-27T13:54:48;8.25;;;4.18;;
18983;SDS011;9626;52.552;13.436;2022-08-27T13:57:22;5.28;;;3.65;;
18983;SDS011;9626;52.552;13.436;2022-08-27T13:59:54;11.80;;;4.47;;
18983;SDS011;9626;52.552;13.436;2022-08-27T14:02:23;6.50;;;3.80;;
18983;SDS011;9626;52.552;13.436;2022-08-27T14:05:06;9.00;;;4.20;;
18983;SDS011;9626;52.552;13.436;2022-08-27T14:08:16;8.38;;;4.13;;
18983;SDS011;9626;52.552;13.436;2022-08-27T14:12:59;4.82;;;3.40;;
18983;SDS011;9626;52.552;13.436;2022-08-27T14:15:44;3.92;;;3.53;;
18983;SDS011;9626;52.552;13.436;2022-08-27T14:18:26;7.03;;;4.00;;
18983;SDS011;9626;52.552;13.436;2022-08-27T14:20:56;8.10;;;3.80;;
18983;SDS011;9626;52.552;13.436;2022-08-27T14:23:23;6.50;;;3.67;;
18983;SDS011;9626;52.552;13.436;2022-08-27T14:25:49;4.90;;;3.97;;
18983;SDS011;9626;52.552;13.436;2022-08-27T14:28:16;6.90;;;4.07;;
18983;SDS011;9626;52.552;13.436;2022-08-27T14:30:42;6.53;;;4.15;;
18983;SDS011;9626;52.552;13.436;2022-08-27T14:33:07;4.60;;;4.07;;
18983;SDS011;9626;52.552;13.436;2022-08-27T14:35:34;6.43;;;4.40;;
18983;SDS011;9626;52.552;13.436;2022-08-27T14:38:03;6.55;;;4.43;;
18983;SDS011;9626;52.552;13.436;2022-08-27T14:40:36;9.45;;;5.40;;
18983;SDS011;9626;52.552;13.436;2022-08-27T14:43:01;13.73;;;5.93;;
18983;SDS011;9626;52.552;13.436;2022-08-27T14:45:27;9.88;;;5.93;;
18983;SDS011;9626;52.552;13.436;2022-08-27T14:47:53;8.05;;;5.30;;
18983;SDS011;9626;52.552;13.436;2022-08-27T14:50:18;6.28;;;5.35;;
18983;SDS011;9626;52.552;13.436;2022-08-27T14:52:45;7.32;;;5.18;;
18983;SDS011;9626;52.552;13.436;2022-08-27T14:55:11;5.40;;;4.82;;
18983;SDS011;9626;52.552;13.436;2022-08-27T14:57:38;5.75;;;5.10;;
18983;SDS011;9626;52.552;13.436;2022-08-27T15:00:04;7.07;;;5.18;;
18983;SDS011;9626;52.552;13.436;2022-08-27T15:02:31;7.07;;;5.25;;
18983;SDS011;9626;52.552;13.436;2022-08-27T15:04:57;7.18;;;5.40;;
18983;SDS011;9626;52.552;13.436;2022-08-27T15:07:22;5.38;;;4.93;;
18983;SDS011;9626;52.552;13.436;2022-08-27T15:09:48;11.85;;;5.88;;
18983;SDS011;9626;52.552;13.436;2022-08-27T15:12:13;8.50;;;5.85;;
18983;SDS011;9626;52.552;13.436;2022-08-27T15:14:39;6.28;;;5.68;;
18983;SDS011;9626;52.552;13.436;2022-08-27T15:17:07;8.13;;;4.85;;
18983;SDS011;9626;52.552;13.436;2022-08-27T15:19:33;5.82;;;4.95;;
18983;SDS011;9626;52.552;13.436;2022-08-27T15:22:04;7.93;;;6.32;;
18983;SDS011;9626;52.552;13.436;2022-08-27T15:24:44;6.60;;;5.53;;
18983;SDS011;9626;52.552;13.436;2022-08-27T15:27:12;6.63;;;5.45;;
18983;SDS011;9626;52.552;13.436;2022-08-27T15:29:38;6.38;;;5.65;;
18983;SDS011;9626;52.552;13.436;2022-08-27T15:32:04;8.60;;;5.65;;
18983;SDS011;9626;52.552;13.436;2022-08-27T15:34:30;6.70;;;5.25;;
18983;SDS011;9626;52.552;13.436;2022-08-27T15:36:56;7.95;;;5.93;;
18983;SDS011;9626;52.552;13.436;2022-08-27T15:39:22;7.20;;;5.25;;
18983;SDS011;9626;52.552;13.436;2022-08-27T15:41:48;7.43;;;5.47;;
18983;SDS011;9626;52.552;13.436;2022-08-27T15:44:14;5.13;;;4.63;;
18983;SDS011;9626;52.552;13.436;2022-08-27T15:46:40;8.25;;;4.97;;
18983;SDS011;9626;52.552;13.436;2022-08-27T15:49:08;5.10;;;4.60;;
18983;SDS011;9626;52.552;13.436;2022-08-27T15:51:36;7.00;;;4.20;;
18983;SDS011;9626;52.552;13.436;2022-08-27T15:54:02;6.50;;;4.35;;
18983;SDS011;9626;52.552;13.436;2022-08-27T15:56:28;5.43;;;4.93;;
18983;SDS011;9626;52.552;13.436;2022-08-27T15:58:54;7.05;;;4.80;;
18983;SDS011;9626;52.552;13.436;2022-08-27T16:01:24;7.57;;;4.72;;
18983;SDS011;9626;52.552;13.436;2022-08-27T16:03:52;5.50;;;4.47;;
18983;SDS011;9626;52.552;13.436;2022-08-27T16:06:19;4.70;;;4.10;;
18983;SDS011;9626;52.552;13.436;2022-08-27T16:08:45;5.07;;;4.57;;
18983;SDS011;9626;52.552;13.436;2022-08-27T16:11:11;5.18;;;4.38;;
18983;SDS011;9626;52.552;13.436;2022-08-27T16:13:37;7.53;;;4.18;;
18983;SDS011;9626;52.552;13.436;2022-08-27T16:16:03;5.68;;;4.40;;
18983;SDS011;9626;52.552;13.436;2022-08-27T16:18:31;4.88;;;4.47;;
18983;SDS011;9626;52.552;13.436;2022-08-27T16:20:58;4.70;;;4.00;;
18983;SDS011;9626;52.552;13.436;2022-08-27T16:23:25;6.50;;;3.85;;
18983;SDS011;9626;52.552;13.436;2022-08-27T16:28:41;5.45;;;4.10;;
18983;SDS011;9626;52.552;13.436;2022-08-27T16:31:08;5.60;;;4.38;;